Time;durP1;ratioP1;P1;durP2;ratioP2;P2;SDS_P1;SDS_P2;PMS_P1;PMS_P2;Temp;Humidity;BMP_temperature;BMP_pressure;BME280_temperature;BME280_humidity;BME280_pressure;Samples;Min_cycle;Max_cycle;Signal;HPM_P1;HPM_P2
2022/07/18 00:00:39;;;;;;;2.45;1.00;;;18.60;53.00;;;;;;4879847;29;20116;-75
2022/07/18 00:03:05;;;;;;;1.00;0.45;;;18.40;53.30;;;;;;4894842;29;20048;-75
2022/07/18 00:05:40;;;;;;;1.00;0.60;;;18.40;53.60;;;;;;4891040;29;20140;-75
2022/07/18 00:08:07;;;;;;;2.20;0.65;;;18.30;53.60;;;;;;4895618;29;20052;-75
2022/07/18 00:10:34;;;;;;;3.08;0.60;;;18.20;53.90;;;;;;4895481;29;20059;-76
2022/07/18 00:13:01;;;;;;;4.82;0.77;;;18.20;54.10;;;;;;4894296;29;20399;-74
2022/07/18 00:15:31;;;;;;;2.30;0.80;;;18.10;54.50;;;;;;4891872;29;20100;-75
2022/07/18 00:17:57;;;;;;;8.38;0.80;;;18.10;54.40;;;;;;4894270;29;20083;-76
2022/07/18 00:20:25;;;;;;;3.63;0.85;;;18.10;54.60;;;;;;4892232;29;20053;-74
2022/07/18 00:22:53;;;;;;;1.80;0.98;;;18.10;54.50;;;;;;4891880;29;20052;-76
2022/07/18 00:25:20;;;;;;;1.85;0.75;;;17.90;54.60;;;;;;4896937;29;20135;-75
2022/07/18 00:27:47;;;;;;;1.60;0.88;;;18.00;54.40;;;;;;4890382;29;20064;-77
2022/07/18 00:30:14;;;;;;;1.92;0.68;;;17.90;54.40;;;;;;4887121;29;20052;-74
2022/07/18 00:32:41;;;;;;;2.20;1.05;;;17.90;54.30;;;;;;4898908;29;20061;-75
2022/07/18 00:35:10;;;;;;;2.03;0.85;;;17.90;54.20;;;;;;4893877;29;20051;-76
2022/07/18 00:37:36;;;;;;;3.95;0.80;;;17.80;54.40;;;;;;4894066;29;20071;-74
2022/07/18 00:40:06;;;;;;;3.05;0.77;;;17.70;54.50;;;;;;4904172;29;20040;-75
2022/07/18 00:42:33;;;;;;;3.20;0.55;;;17.70;54.50;;;;;;4903632;29;20379;-74
2022/07/18 00:45:00;;;;;;;1.38;0.50;;;17.70;54.50;;;;;;4885908;29;20045;-74
2022/07/18 00:47:27;;;;;;;2.90;0.60;;;17.70;54.50;;;;;;4894803;29;20088;-76
2022/07/18 00:49:54;;;;;;;1.10;0.60;;;17.60;54.60;;;;;;4894543;29;20052;-76
2022/07/18 00:52:21;;;;;;;2.75;0.70;;;17.60;54.60;;;;;;4891734;29;20059;-75
2022/07/18 00:54:48;;;;;;;1.70;0.70;;;17.60;54.60;;;;;;4890228;29;20715;-73
2022/07/18 00:57:17;;;;;;;1.23;0.50;;;17.50;54.50;;;;;;4889491;29;20045;-74
2022/07/18 01:02:29;;;;;;;2.90;0.55;;;17.40;54.70;;;;;;4900283;29;20404;-74
2022/07/18 01:04:56;;;;;;;1.60;0.60;;;17.30;55.00;;;;;;4899716;29;20072;-75
2022/07/18 01:07:23;;;;;;;1.83;0.60;;;17.30;55.20;;;;;;4885304;29;20051;-76
2022/07/18 01:09:50;;;;;;;1.65;0.60;;;17.30;55.60;;;;;;4892344;29;20075;-77
2022/07/18 01:12:18;;;;;;;2.80;0.70;;;17.20;55.70;;;;;;4900292;29;20056;-76
2022/07/18 01:14:47;;;;;;;2.33;0.50;;;17.20;55.80;;;;;;4895778;29;20055;-77
2022/07/18 01:17:16;;;;;;;1.45;0.50;;;17.20;55.80;;;;;;4900991;29;20044;-74
2022/07/18 01:19:43;;;;;;;1.30;0.50;;;17.10;55.90;;;;;;4889187;29;20053;-73
2022/07/18 01:22:12;;;;;;;2.17;0.47;;;17.10;55.90;;;;;;4897106;29;20057;-75
2022/07/18 01:24:40;;;;;;;2.17;0.70;;;17.10;55.80;;;;;;4893087;29;20059;-76
2022/07/18 01:27:07;;;;;;;1.75;0.65;;;17.10;55.90;;;;;;4895190;29;20676;-76
2022/07/18 01:29:34;;;;;;;1.00;0.50;;;17.10;56.00;;;;;;4890108;29;20053;-74
2022/07/18 01:32:05;;;;;;;2.13;0.73;;;17.00;56.00;;;;;;4889498;29;20111;-75
2022/07/18 01:34:33;;;;;;;1.77;0.68;;;17.00;56.00;;;;;;4892230;29;20053;-75
2022/07/18 01:37:01;;;;;;;2.28;0.50;;;17.00;55.80;;;;;;4895566;29;20056;-77
2022/07/18 01:39:29;;;;;;;4.43;0.70;;;17.00;55.70;;;;;;4890160;29;20060;-75
2022/07/18 01:41:57;;;;;;;1.70;0.75;;;17.00;55.70;;;;;;4890500;29;20049;-76
2022/07/18 01:44:24;;;;;;;2.88;0.57;;;16.90;55.80;;;;;;4895507;29;20104;-76
2022/07/18 01:46:52;;;;;;;1.48;0.60;;;16.90;55.90;;;;;;4898232;29;20053;-77
2022/07/18 01:49:20;;;;;;;2.33;0.63;;;16.90;56.00;;;;;;4892081;29;20168;-76
2022/07/18 01:51:47;;;;;;;1.30;0.50;;;16.90;55.80;;;;;;4886567;29;20059;-76
2022/07/18 01:54:14;;;;;;;2.65;0.68;;;16.90;55.60;;;;;;4892029;29;20053;-75
2022/07/18 01:56:42;;;;;;;2.80;0.65;;;16.90;55.30;;;;;;4895443;29;20056;-76
2022/07/18 01:59:09;;;;;;;6.15;0.85;;;16.90;55.60;;;;;;4890012;29;20051;-75
2022/07/18 02:01:36;;;;;;;2.00;0.50;;;16.80;56.00;;;;;;4882362;29;20503;-75
2022/07/18 02:04:03;;;;;;;2.22;0.70;;;16.70;56.10;;;;;;4894655;29;20067;-74
2022/07/18 02:06:30;;;;;;;1.48;0.77;;;16.80;56.10;;;;;;4894589;29;20071;-76
2022/07/18 02:08:57;;;;;;;1.48;0.63;;;16.70;56.00;;;;;;4887197;29;20053;-77
2022/07/18 02:11:24;;;;;;;2.15;0.60;;;16.80;55.60;;;;;;4887665;29;20048;-75
2022/07/18 02:13:53;;;;;;;3.22;0.60;;;16.80;55.60;;;;;;4894612;29;20044;-75
2022/07/18 02:16:20;;;;;;;2.28;0.80;;;16.70;55.70;;;;;;4890093;29;20067;-76
2022/07/18 02:18:47;;;;;;;1.67;0.57;;;16.60;56.00;;;;;;4887310;29;20049;-75
2022/07/18 02:21:14;;;;;;;1.35;0.43;;;16.60;56.00;;;;;;4890226;29;20052;-75
2022/07/18 02:23:42;;;;;;;2.88;0.70;;;16.70;55.60;;;;;;4887425;29;20468;-74
2022/07/18 02:26:09;;;;;;;1.55;0.82;;;16.60;55.70;;;;;;4893854;29;20780;-75
2022/07/18 02:28:37;;;;;;;2.40;0.60;;;16.60;55.90;;;;;;4891597;29;20053;-75
2022/07/18 02:31:06;;;;;;;2.15;0.85;;;16.60;55.70;;;;;;4892476;29;20154;-72
2022/07/18 02:33:34;;;;;;;2.20;0.50;;;16.40;55.90;;;;;;4881091;29;20071;-72
2022/07/18 02:36:01;;;;;;;3.33;0.60;;;16.40;56.10;;;;;;4892711;29;20151;-73
2022/07/18 02:38:28;;;;;;;0.88;0.40;;;16.40;56.10;;;;;;4901497;29;20052;-71
2022/07/18 02:40:55;;;;;;;1.05;0.50;;;16.40;56.10;;;;;;4888276;29;20049;-74
2022/07/18 02:43:22;;;;;;;1.92;0.52;;;16.50;55.80;;;;;;4900075;29;20044;-73
2022/07/18 02:45:49;;;;;;;2.70;0.40;;;16.40;55.90;;;;;;4898394;29;20075;-75
2022/07/18 02:48:17;;;;;;;0.70;0.30;;;16.40;56.00;;;;;;4892284;29;20055;-76
2022/07/18 02:50:44;;;;;;;1.17;0.63;;;16.40;56.30;;;;;;4887239;29;20096;-74
2022/07/18 02:53:11;;;;;;;2.33;0.80;;;16.40;56.60;;;;;;4896131;29;20505;-73
2022/07/18 02:55:38;;;;;;;3.10;0.68;;;16.40;56.70;;;;;;4894955;29;20044;-75
2022/07/18 02:58:05;;;;;;;3.55;0.88;;;16.30;56.90;;;;;;4891365;29;20044;-72
2022/07/18 03:00:32;;;;;;;2.33;0.93;;;16.30;56.90;;;;;;4891169;29;20104;-73
2022/07/18 03:02:59;;;;;;;1.52;0.60;;;16.30;57.10;;;;;;4894141;29;20064;-74
2022/07/18 03:05:27;;;;;;;2.30;0.60;;;16.20;57.40;;;;;;4893294;29;20059;-73
2022/07/18 03:07:54;;;;;;;1.88;0.60;;;16.20;57.10;;;;;;4891592;29;20053;-74
2022/07/18 03:10:21;;;;;;;3.60;0.75;;;16.10;57.30;;;;;;4900168;29;20049;-73
2022/07/18 03:12:48;;;;;;;1.27;0.65;;;16.10;57.20;;;;;;4903323;29;20052;-73
2022/07/18 03:15:14;;;;;;;2.35;0.80;;;16.20;57.10;;;;;;4893066;29;20120;-73
2022/07/18 03:17:41;;;;;;;1.83;0.90;;;16.10;57.10;;;;;;4903337;29;20072;-73
2022/07/18 03:20:09;;;;;;;2.35;0.70;;;16.20;56.60;;;;;;4892612;29;20056;-74
2022/07/18 03:22:37;;;;;;;2.15;0.70;;;16.10;56.80;;;;;;4891265;29;20056;-73
2022/07/18 03:25:05;;;;;;;2.03;0.60;;;16.10;56.80;;;;;;4901960;29;20483;-74
2022/07/18 03:27:32;;;;;;;2.50;0.50;;;16.00;57.00;;;;;;4904155;29;20052;-75
2022/07/18 03:29:59;;;;;;;2.03;0.82;;;16.00;57.30;;;;;;4875417;29;20064;-74
2022/07/18 03:32:26;;;;;;;4.70;0.73;;;16.00;57.20;;;;;;4884748;29;20052;-75
2022/07/18 03:34:52;;;;;;;1.75;0.70;;;16.00;57.00;;;;;;4899536;29;20056;-75
2022/07/18 03:37:19;;;;;;;4.35;0.70;;;16.00;57.20;;;;;;4894427;29;20044;-75
2022/07/18 03:39:48;;;;;;;2.53;1.00;;;16.00;57.30;;;;;;4891012;29;20052;-75
2022/07/18 03:42:15;;;;;;;4.38;1.00;;;15.90;57.50;;;;;;4886172;29;20434;-75
2022/07/18 03:44:41;;;;;;;3.45;0.85;;;15.90;57.80;;;;;;4890173;29;20410;-72
2022/07/18 03:47:08;;;;;;;3.50;0.65;;;15.90;57.90;;;;;;4876207;29;20136;-73
2022/07/18 03:49:35;;;;;;;1.55;0.63;;;15.90;58.20;;;;;;4893670;29;20060;-74
2022/07/18 03:52:02;;;;;;;3.65;0.70;;;15.80;58.40;;;;;;4887423;29;20063;-74
2022/07/18 03:54:29;;;;;;;1.80;0.80;;;15.80;58.40;;;;;;4891778;29;20052;-73
2022/07/18 03:56:57;;;;;;;2.83;0.80;;;15.80;58.50;;;;;;4886810;29;20570;-74
2022/07/18 03:59:24;;;;;;;1.77;0.70;;;15.70;58.60;;;;;;4892543;29;20048;-74
2022/07/18 04:01:51;;;;;;;2.05;0.93;;;15.70;58.70;;;;;;4889120;29;20418;-75
2022/07/18 04:04:18;;;;;;;3.78;1.00;;;15.70;58.90;;;;;;4894230;29;20052;-74
2022/07/18 04:06:45;;;;;;;2.92;0.80;;;15.70;58.90;;;;;;4899071;29;20513;-71
2022/07/18 04:09:12;;;;;;;3.75;1.20;;;15.70;59.00;;;;;;4886323;29;20064;-72
2022/07/18 04:11:39;;;;;;;2.08;0.93;;;15.70;59.00;;;;;;4886445;29;20514;-72
2022/07/18 04:14:07;;;;;;;3.28;0.52;;;15.70;59.00;;;;;;4888558;29;20435;-71
2022/07/18 04:16:34;;;;;;;1.90;0.77;;;15.60;59.20;;;;;;4888744;29;20045;-72
2022/07/18 04:19:00;;;;;;;2.60;0.60;;;15.70;59.30;;;;;;4898643;29;20130;-74
2022/07/18 04:21:27;;;;;;;10.57;1.10;;;15.70;59.20;;;;;;4892481;29;20123;-71
2022/07/18 04:23:54;;;;;;;2.53;0.73;;;15.70;59.30;;;;;;4884780;29;20059;-72
2022/07/18 04:26:21;;;;;;;5.38;1.02;;;15.70;59.10;;;;;;4892711;29;20521;-75
2022/07/18 04:28:48;;;;;;;3.15;0.73;;;15.70;59.00;;;;;;4900306;29;20044;-74
2022/07/18 04:31:17;;;;;;;5.22;0.73;;;15.70;58.80;;;;;;4890802;29;20060;-74
2022/07/18 04:33:43;;;;;;;2.58;0.80;;;15.80;58.50;;;;;;4900378;29;20041;-74
2022/07/18 04:36:10;;;;;;;2.83;0.77;;;15.80;58.50;;;;;;4889474;29;20055;-73
2022/07/18 04:38:38;;;;;;;1.58;0.70;;;15.80;58.70;;;;;;4892905;29;20104;-74
2022/07/18 04:41:05;;;;;;;4.20;0.80;;;15.80;58.80;;;;;;4886273;29;20049;-73
2022/07/18 04:43:32;;;;;;;2.38;0.90;;;15.90;58.70;;;;;;4886246;29;20053;-75
2022/07/18 04:45:59;;;;;;;3.10;0.80;;;15.80;58.70;;;;;;4881912;29;20049;-73
2022/07/18 04:48:28;;;;;;;3.17;0.98;;;15.80;58.80;;;;;;4890505;29;20100;-74
2022/07/18 04:50:54;;;;;;;1.73;0.60;;;15.90;58.60;;;;;;4885709;29;23669;-74
2022/07/18 04:53:21;;;;;;;3.97;0.80;;;15.90;58.40;;;;;;4893232;29;20052;-74
2022/07/18 04:55:48;;;;;;;2.60;0.57;;;15.90;58.40;;;;;;4896538;29;20044;-72
2022/07/18 04:58:15;;;;;;;2.83;0.65;;;16.00;58.40;;;;;;4888345;29;20053;-74
2022/07/18 05:00:42;;;;;;;2.03;0.75;;;16.00;58.20;;;;;;4878308;29;20419;-73
2022/07/18 05:03:09;;;;;;;1.30;0.63;;;16.00;58.20;;;;;;4889660;29;20056;-72
2022/07/18 05:05:37;;;;;;;1.42;0.60;;;16.00;58.20;;;;;;4883398;29;20048;-74
2022/07/18 05:08:05;;;;;;;3.03;0.80;;;16.10;58.20;;;;;;4887116;29;20491;-72
2022/07/18 05:10:33;;;;;;;3.20;0.90;;;16.10;58.20;;;;;;4889707;29;20064;-73
2022/07/18 05:13:01;;;;;;;1.92;0.70;;;16.10;58.00;;;;;;4880588;29;20052;-73
2022/07/18 05:15:28;;;;;;;4.28;0.80;;;16.20;57.90;;;;;;4887725;29;20127;-72
2022/07/18 05:17:55;;;;;;;2.97;0.93;;;16.30;57.80;;;;;;4893052;29;20059;-72
2022/07/18 05:20:25;;;;;;;2.13;0.88;;;16.30;57.70;;;;;;4891273;29;20051;-72
2022/07/18 05:22:53;;;;;;;2.85;0.90;;;16.30;57.90;;;;;;4900919;29;20116;-72
2022/07/18 05:25:22;;;;;;;4.50;0.95;;;16.20;57.90;;;;;;4890708;29;20490;-73
2022/07/18 05:27:50;;;;;;;3.33;0.77;;;16.20;57.80;;;;;;4884148;29;20048;-71
2022/07/18 05:30:17;;;;;;;2.40;0.63;;;16.20;57.50;;;;;;4890578;29;20507;-70
2022/07/18 05:32:45;;;;;;;2.10;0.80;;;16.30;57.60;;;;;;4881740;29;20059;-72
2022/07/18 05:35:13;;;;;;;3.22;0.63;;;16.40;57.60;;;;;;4877063;29;20060;-69
2022/07/18 05:37:40;;;;;;;3.63;0.60;;;16.40;57.40;;;;;;4867271;29;20059;-71
2022/07/18 05:40:11;;;;;;;3.60;1.00;;;16.50;57.50;;;;;;4886424;29;20048;-72
2022/07/18 05:42:38;;;;;;;2.80;0.95;;;16.50;57.50;;;;;;4889477;29;20081;-72
2022/07/18 05:45:07;;;;;;;1.42;0.65;;;16.50;57.20;;;;;;4880469;29;20063;-72
2022/07/18 05:47:34;;;;;;;4.55;0.85;;;16.50;57.60;;;;;;4886707;29;20053;-73
2022/07/18 05:50:01;;;;;;;4.00;0.93;;;16.60;57.40;;;;;;4886141;29;20057;-73
2022/07/18 05:52:28;;;;;;;1.95;0.90;;;16.60;57.40;;;;;;4872641;29;20578;-73
2022/07/18 05:54:55;;;;;;;1.13;0.50;;;16.60;57.50;;;;;;4882483;29;20063;-72
2022/07/18 05:57:23;;;;;;;2.15;0.80;;;16.60;57.50;;;;;;4886735;29;20049;-72
2022/07/18 05:59:50;;;;;;;3.17;0.80;;;16.70;57.60;;;;;;4890747;29;20391;-71
2022/07/18 06:02:17;;;;;;;5.25;1.00;;;16.70;57.80;;;;;;4886258;29;20052;-73
2022/07/18 06:04:44;;;;;;;5.55;0.75;;;16.70;57.70;;;;;;4898295;29;20092;-73
2022/07/18 06:07:11;;;;;;;2.13;0.82;;;16.80;57.60;;;;;;4886399;29;20049;-74
2022/07/18 06:09:38;;;;;;;2.13;0.77;;;16.80;57.70;;;;;;4896124;29;20063;-73
2022/07/18 06:12:06;;;;;;;5.50;0.90;;;16.80;57.80;;;;;;4878053;29;20588;-74
2022/07/18 06:14:35;;;;;;;1.90;0.70;;;16.90;57.70;;;;;;4880683;29;20049;-72
2022/07/18 06:17:02;;;;;;;2.47;1.13;;;16.90;57.80;;;;;;4885650;29;20048;-73
2022/07/18 06:19:29;;;;;;;3.15;0.88;;;16.90;57.60;;;;;;4886871;29;20582;-73
2022/07/18 06:21:56;;;;;;;3.53;0.57;;;17.00;57.50;;;;;;4877408;29;20055;-74
2022/07/18 06:24:23;;;;;;;4.28;1.00;;;17.00;57.30;;;;;;4886369;29;20530;-75
2022/07/18 06:26:50;;;;;;;4.93;1.00;;;17.10;57.30;;;;;;4885308;29;20040;-73
2022/07/18 06:29:17;;;;;;;5.00;0.82;;;17.10;57.30;;;;;;4890704;29;20048;-73
2022/07/18 06:31:46;;;;;;;3.85;0.75;;;17.20;57.20;;;;;;4882248;29;20052;-73
2022/07/18 06:34:13;;;;;;;2.13;0.80;;;17.30;57.00;;;;;;4897703;29;20056;-74
2022/07/18 06:36:40;;;;;;;1.88;0.65;;;17.40;56.80;;;;;;4876215;29;20411;-74
2022/07/18 06:39:10;;;;;;;2.55;0.68;;;17.50;56.80;;;;;;4885482;29;20384;-74
2022/07/18 06:41:38;;;;;;;1.65;0.90;;;17.60;56.80;;;;;;4900107;29;20066;-71
2022/07/18 06:44:08;;;;;;;2.20;0.93;;;17.70;56.80;;;;;;4879133;29;20049;-73
2022/07/18 06:46:36;;;;;;;1.42;0.63;;;17.80;56.70;;;;;;4883168;29;20048;-73
2022/07/18 06:49:05;;;;;;;4.38;0.77;;;18.00;56.60;;;;;;4880450;29;20060;-72
2022/07/18 06:51:32;;;;;;;5.43;1.00;;;18.20;56.30;;;;;;4888696;29;20139;-74
2022/07/18 06:53:59;;;;;;;2.90;0.63;;;18.30;56.10;;;;;;4879500;29;20064;-73
2022/07/18 06:56:26;;;;;;;3.97;1.38;;;18.50;56.00;;;;;;4886545;29;20061;-73
2022/07/18 06:58:53;;;;;;;2.92;0.93;;;18.60;55.60;;;;;;4882474;29;20426;-72
2022/07/18 07:01:21;;;;;;;3.75;1.00;;;18.80;55.50;;;;;;4877966;29;20160;-73
2022/07/18 07:03:48;;;;;;;2.80;0.82;;;19.00;55.20;;;;;;4892958;29;20499;-72
2022/07/18 07:06:17;;;;;;;2.00;0.73;;;19.10;54.90;;;;;;4888420;29;20050;-73
2022/07/18 07:08:44;;;;;;;3.60;1.02;;;19.30;54.70;;;;;;4885940;29;20060;-70
2022/07/18 07:11:11;;;;;;;3.70;0.80;;;19.40;54.40;;;;;;4878250;29;20041;-71
2022/07/18 07:13:38;;;;;;;2.35;0.70;;;19.60;54.10;;;;;;4876408;29;20057;-73
2022/07/18 07:16:05;;;;;;;3.80;0.77;;;19.80;53.70;;;;;;4878838;29;20054;-72
2022/07/18 07:18:32;;;;;;;2.92;0.82;;;20.00;53.00;;;;;;4882355;29;20045;-73
2022/07/18 07:20:59;;;;;;;4.70;0.82;;;20.20;52.20;;;;;;4886983;29;20048;-73
2022/07/18 07:23:28;;;;;;;5.13;0.85;;;20.40;51.70;;;;;;4869931;29;20057;-73
2022/07/18 07:25:55;;;;;;;4.45;0.70;;;20.60;51.20;;;;;;4883659;29;20167;-71
2022/07/18 07:28:22;;;;;;;2.58;0.80;;;20.80;51.10;;;;;;4876752;29;20056;-72
2022/07/18 07:30:49;;;;;;;2.63;0.50;;;21.00;50.00;;;;;;4887700;29;20049;-72
2022/07/18 07:33:17;;;;;;;4.45;0.77;;;21.10;50.00;;;;;;4888791;29;20124;-72
2022/07/18 07:35:44;;;;;;;2.15;0.55;;;21.30;49.10;;;;;;4890685;29;20899;-72
2022/07/18 07:38:17;;;;;;;3.17;0.85;;;21.40;49.20;;;;;;4880393;29;20108;-72
2022/07/18 07:40:46;;;;;;;3.03;0.45;;;21.70;48.00;;;;;;4897829;29;20491;-72
2022/07/18 07:43:14;;;;;;;1.95;0.70;;;21.90;47.40;;;;;;4888552;29;20049;-73
2022/07/18 07:45:42;;;;;;;2.63;0.95;;;22.10;46.70;;;;;;4884399;29;20131;-73
2022/07/18 07:48:09;;;;;;;2.75;0.90;;;22.30;47.00;;;;;;4892217;29;20059;-74
2022/07/18 07:50:36;;;;;;;2.47;0.52;;;22.40;46.10;;;;;;4882116;29;20044;-74
2022/07/18 07:53:03;;;;;;;3.10;0.80;;;22.60;45.70;;;;;;4890305;29;20064;-73
2022/07/18 07:55:31;;;;;;;2.58;0.88;;;22.70;46.00;;;;;;4889929;29;20528;-74
2022/07/18 07:57:59;;;;;;;2.75;0.80;;;22.90;45.00;;;;;;4889064;29;20064;-74
2022/07/18 08:00:27;;;;;;;1.80;0.60;;;23.10;45.10;;;;;;4897022;29;20049;-67
2022/07/18 08:02:55;;;;;;;2.67;0.60;;;23.20;44.90;;;;;;4887651;29;20070;-67
2022/07/18 08:05:23;;;;;;;1.52;0.50;;;23.40;44.70;;;;;;4886827;29;20048;-66
2022/07/18 08:07:50;;;;;;;3.20;0.80;;;23.50;44.80;;;;;;4888920;29;20060;-66
2022/07/18 08:10:18;;;;;;;3.42;0.63;;;23.60;44.30;;;;;;4888389;29;20048;-66
2022/07/18 08:12:45;;;;;;;0.90;0.60;;;23.80;43.50;;;;;;4889628;29;20052;-68
2022/07/18 08:15:13;;;;;;;2.67;0.60;;;24.00;43.70;;;;;;4890317;29;20052;-67
2022/07/18 08:17:40;;;;;;;1.63;0.60;;;24.20;43.30;;;;;;4884186;29;20062;-66
2022/07/18 08:20:08;;;;;;;2.95;0.55;;;24.30;42.20;;;;;;4879276;29;20406;-66
2022/07/18 08:22:35;;;;;;;2.75;0.50;;;24.40;42.60;;;;;;4878276;29;20067;-68
2022/07/18 08:25:03;;;;;;;3.47;0.80;;;24.50;42.70;;;;;;4878792;29;20068;-66
2022/07/18 08:27:30;;;;;;;1.52;0.60;;;24.60;42.00;;;;;;4881628;29;20510;-67
2022/07/18 08:29:57;;;;;;;2.58;0.55;;;24.60;42.60;;;;;;4891957;29;20128;-66
2022/07/18 08:32:25;;;;;;;3.33;0.80;;;24.80;42.30;;;;;;4891207;29;20055;-67
2022/07/18 08:34:53;;;;;;;3.65;0.77;;;25.00;42.30;;;;;;4891299;29;20051;-67
2022/07/18 08:37:21;;;;;;;2.60;0.80;;;25.10;41.80;;;;;;4885480;29;20052;-66
2022/07/18 08:39:48;;;;;;;6.40;1.02;;;25.10;41.90;;;;;;4887662;29;20093;-65
2022/07/18 08:42:17;;;;;;;1.58;0.50;;;25.20;41.20;;;;;;4887377;29;20100;-66
2022/07/18 08:44:45;;;;;;;2.83;0.50;;;25.40;40.60;;;;;;4885357;29;20036;-66
2022/07/18 08:47:13;;;;;;;1.05;0.50;;;25.60;41.00;;;;;;4886549;29;20147;-67
2022/07/18 08:49:42;;;;;;;1.55;0.50;;;25.60;40.70;;;;;;4893213;29;20036;-66
2022/07/18 08:52:09;;;;;;;2.50;0.95;;;25.80;40.90;;;;;;4873623;29;20051;-67
2022/07/18 08:54:37;;;;;;;1.48;0.70;;;25.90;40.10;;;;;;4881546;29;20052;-66
2022/07/18 08:57:04;;;;;;;3.35;0.82;;;26.00;39.60;;;;;;4880155;29;20052;-66
2022/07/18 08:59:31;;;;;;;2.25;0.70;;;26.20;39.90;;;;;;4886392;29;20049;-66
2022/07/18 09:01:58;;;;;;;2.53;0.65;;;26.20;39.40;;;;;;4879992;29;20053;-65
2022/07/18 09:04:39;;;;;;;1.52;0.57;;;26.30;39.00;;;;;;4894708;29;20375;-66
2022/07/18 09:07:09;;;;;;;4.13;1.50;;;26.40;38.00;;;;;;4896698;29;20049;-66
2022/07/18 09:09:37;;;;;;;5.43;2.30;;;26.50;38.00;;;;;;4902221;29;20052;-66
2022/07/18 09:12:05;;;;;;;4.88;1.60;;;26.60;37.40;;;;;;4884166;29;20048;-67
2022/07/18 09:14:36;;;;;;;3.53;1.77;;;26.70;36.60;;;;;;4886377;29;20052;-67
2022/07/18 09:17:06;;;;;;;4.10;1.60;;;26.80;37.20;;;;;;4887370;29;20479;-67
2022/07/18 09:19:33;;;;;;;4.20;1.58;;;26.90;37.20;;;;;;4886421;29;22126;-66
2022/07/18 09:22:15;;;;;;;7.85;2.70;;;27.00;36.90;;;;;;4880892;29;20983;-66
2022/07/18 09:24:54;;;;;;;3.97;1.80;;;27.10;35.50;;;;;;4877760;29;20060;-66
2022/07/18 09:27:31;;;;;;;3.15;1.40;;;27.30;35.40;;;;;;4885084;29;20443;-67
2022/07/18 09:30:24;;;;;;;4.07;1.75;;;27.50;34.40;;;;;;4885592;29;20064;-67
2022/07/18 09:32:53;;;;;;;6.32;2.05;;;27.60;34.30;;;;;;4889993;29;20117;-66
2022/07/18 09:35:23;;;;;;;4.90;1.50;;;27.70;34.70;;;;;;4883364;29;20053;-65
2022/07/18 09:38:02;;;;;;;5.05;1.60;;;27.80;34.00;;;;;;4886751;29;20054;-66
2022/07/18 09:40:32;;;;;;;5.30;1.20;;;28.00;34.10;;;;;;4889031;29;20044;-65
2022/07/18 09:43:02;;;;;;;2.95;1.45;;;28.20;33.50;;;;;;4886772;29;20080;-67
2022/07/18 09:45:30;;;;;;;;;;;28.30;33.60;;;;;;4880687;29;20063;-66
2022/07/18 09:47:59;;;;;;;2.30;0.90;;;28.30;33.60;;;;;;4885619;29;19934;-65
2022/07/18 09:50:27;;;;;;;;;;;28.40;33.70;;;;;;4889231;29;20052;-66
2022/07/18 09:53:06;;;;;;;2.83;0.75;;;28.50;32.90;;;;;;4890985;29;20010;-64
2022/07/18 09:55:34;;;;;;;2.75;1.10;;;28.60;32.60;;;;;;4879953;29;20523;-66
2022/07/18 09:58:04;;;;;;;3.75;0.70;;;28.80;31.60;;;;;;4886597;29;20060;-65
2022/07/18 10:00:34;;;;;;;2.53;0.80;;;29.00;31.60;;;;;;4882354;29;20052;-65
2022/07/18 10:03:02;;;;;;;3.00;0.80;;;29.10;31.20;;;;;;4891216;29;20063;-68
2022/07/18 10:05:30;;;;;;;2.07;0.77;;;29.20;30.80;;;;;;4892854;29;20052;-66
2022/07/18 10:07:58;;;;;;;2.63;0.73;;;29.20;31.10;;;;;;4875749;29;20045;-65
2022/07/18 10:10:27;;;;;;;3.40;1.00;;;29.30;31.40;;;;;;4884675;29;20114;-66
2022/07/18 10:12:56;;;;;;;2.33;1.15;;;29.30;31.30;;;;;;4887278;29;20049;-65
2022/07/18 10:15:23;;;;;;;;;;;29.40;31.20;;;;;;4884722;29;20053;-66
2022/07/18 10:17:51;;;;;;;2.88;1.08;;;29.50;31.50;;;;;;4887638;29;19927;-66
2022/07/18 10:20:25;;;;;;;7.38;1.65;;;29.50;31.60;;;;;;4879908;29;20040;-67
2022/07/18 10:22:54;;;;;;;2.47;1.27;;;29.60;31.80;;;;;;4880447;29;20479;-66
2022/07/18 10:25:23;;;;;;;3.88;1.40;;;29.60;31.80;;;;;;4879403;29;20055;-67
2022/07/18 10:27:54;;;;;;;3.97;1.40;;;29.60;31.90;;;;;;4880764;29;20049;-67
2022/07/18 10:30:32;;;;;;;5.47;1.45;;;29.60;32.20;;;;;;4883170;29;20047;-66
2022/07/18 10:33:00;;;;;;;3.42;1.60;;;29.60;32.20;;;;;;4888000;29;20163;-66
2022/07/18 10:36:03;;;;;;;4.43;1.55;;;29.60;32.20;;;;;;4890489;29;20475;-67
2022/07/18 10:38:30;;;;;;;3.25;1.30;;;29.60;32.00;;;;;;4894456;29;20629;-67
2022/07/18 10:41:09;;;;;;;5.22;1.90;;;29.60;32.20;;;;;;4883505;29;20132;-67
2022/07/18 10:43:46;;;;;;;8.38;3.78;;;29.70;31.80;;;;;;4887995;29;20061;-68
2022/07/18 10:46:14;;;;;;;7.38;3.75;;;29.80;32.20;;;;;;4860717;29;20045;-67
2022/07/18 10:48:58;;;;;;;5.23;2.07;;;29.80;32.10;;;;;;4881131;29;20049;-66
2022/07/18 10:51:35;;;;;;;4.85;1.98;;;29.80;32.00;;;;;;4881880;29;20131;-66
2022/07/18 10:54:10;;;;;;;4.85;2.08;;;29.80;31.80;;;;;;4887392;29;20472;-66
2022/07/18 10:57:05;;;;;;;5.88;2.10;;;29.80;31.80;;;;;;4878262;29;20143;-66
2022/07/18 10:59:34;;;;;;;5.72;2.70;;;29.80;31.70;;;;;;4883272;29;22503;-67
2022/07/18 11:02:04;;;;;;;8.45;4.53;;;29.80;31.80;;;;;;4883016;29;20190;-66
2022/07/18 11:04:35;;;;;;;8.85;4.43;;;30.00;31.90;;;;;;4885389;29;20423;-67
2022/07/18 11:07:05;;;;;;;7.88;3.78;;;30.00;31.80;;;;;;4880452;29;20053;-67
2022/07/18 11:09:37;;;;;;;8.93;5.00;;;30.10;31.60;;;;;;4894098;29;20540;-67
2022/07/18 11:12:21;;;;;;;7.60;3.70;;;30.20;31.70;;;;;;4882202;29;20044;-66
2022/07/18 11:15:07;;;;;;;9.77;4.60;;;30.30;31.20;;;;;;4889218;29;20084;-66
2022/07/18 11:17:58;;;;;;;9.02;4.70;;;30.50;30.30;;;;;;4894467;29;20053;-67
2022/07/18 11:20:27;;;;;;;8.25;3.80;;;30.50;30.80;;;;;;4884178;29;20483;-67
2022/07/18 11:22:55;;;;;;;8.65;4.10;;;30.50;30.20;;;;;;4890516;29;20052;-67
2022/07/18 11:25:26;;;;;;;8.85;4.47;;;30.50;30.70;;;;;;4886371;29;20510;-66
2022/07/18 11:27:53;;;;;;;7.38;3.75;;;30.50;30.70;;;;;;4889268;29;20056;-67
2022/07/18 11:30:23;;;;;;;8.32;4.70;;;30.60;30.80;;;;;;4883282;29;20044;-67
2022/07/18 11:32:50;;;;;;;10.18;5.05;;;30.60;30.90;;;;;;4890520;29;20055;-67
2022/07/18 11:35:23;;;;;;;8.07;4.68;;;30.70;31.10;;;;;;4879912;29;20053;-65
2022/07/18 11:37:51;;;;;;;10.15;5.13;;;30.70;31.10;;;;;;4893627;29;20055;-68
2022/07/18 11:40:18;;;;;;;8.45;4.40;;;30.80;31.10;;;;;;4893627;29;20056;-67
2022/07/18 11:42:45;;;;;;;6.65;3.03;;;30.90;30.20;;;;;;4886356;29;20499;-67
2022/07/18 11:45:15;;;;;;;7.60;3.13;;;31.00;29.60;;;;;;4884556;29;20052;-66
2022/07/18 11:47:49;;;;;;;6.47;3.50;;;31.00;30.00;;;;;;4890732;29;20439;-67
2022/07/18 11:50:17;;;;;;;6.95;3.33;;;31.10;30.00;;;;;;4886831;29;20134;-68
2022/07/18 11:52:46;;;;;;;6.17;2.30;;;31.10;30.00;;;;;;4888175;29;20049;-67
2022/07/18 11:55:14;;;;;;;5.43;2.55;;;31.20;29.50;;;;;;4889887;29;20476;-66
2022/07/18 11:57:41;;;;;;;5.88;3.03;;;31.30;28.80;;;;;;4879995;29;20055;-67
2022/07/18 12:00:19;;;;;;;4.00;1.92;;;31.20;30.00;;;;;;4884672;29;20106;-68
2022/07/18 12:03:09;;;;;;;2.80;1.35;;;31.00;30.30;;;;;;4895222;29;20049;-68
2022/07/18 12:05:38;;;;;;;4.10;1.65;;;30.70;31.10;;;;;;4892757;29;20108;-67
2022/07/18 12:08:29;;;;;;;4.32;1.90;;;30.70;30.30;;;;;;4896116;29;20045;-67
2022/07/18 12:11:10;;;;;;;7.15;3.05;;;30.80;29.90;;;;;;4902711;29;20044;-66
2022/07/18 12:13:50;;;;;;;4.30;1.98;;;30.90;30.30;;;;;;4904403;29;20058;-68
2022/07/18 12:16:35;;;;;;;4.80;2.08;;;30.90;30.30;;;;;;4897437;29;20044;-67
2022/07/18 12:19:08;;;;;;;3.22;1.67;;;31.00;30.30;;;;;;4899463;29;20045;-67
2022/07/18 12:21:57;;;;;;;2.92;1.55;;;30.90;30.60;;;;;;4880493;29;20056;-67
2022/07/18 12:24:36;;;;;;;4.57;1.00;;;30.80;30.80;;;;;;4891903;29;20096;-67
2022/07/18 12:27:20;;;;;;;1.85;0.98;;;30.80;30.20;;;;;;4901624;29;20578;-67
2022/07/18 12:30:11;;;;;;;1.75;0.90;;;30.90;30.30;;;;;;4887086;29;20048;-67
2022/07/18 12:32:41;;;;;;;3.85;1.40;;;30.70;30.60;;;;;;4887865;29;20048;-67
2022/07/18 12:35:11;;;;;;;3.53;0.90;;;30.50;30.20;;;;;;4893380;29;20049;-68
2022/07/18 12:37:38;;;;;;;3.63;0.88;;;30.40;30.10;;;;;;4892723;29;20135;-69
2022/07/18 12:40:08;;;;;;;1.92;0.70;;;30.30;30.50;;;;;;4900882;29;20045;-68
2022/07/18 12:42:39;;;;;;;2.67;0.80;;;30.40;30.40;;;;;;4885007;29;20485;-68
2022/07/18 12:45:06;;;;;;;;;;;30.50;30.20;;;;;;4898811;29;20044;-67
2022/07/18 12:47:34;;;;;;;2.40;0.90;;;30.40;30.50;;;;;;4892892;29;19927;-66
2022/07/18 12:50:00;;;;;;;2.33;1.05;;;30.50;30.70;;;;;;4897816;29;20057;-67
2022/07/18 12:52:29;;;;;;;2.70;1.35;;;30.50;30.50;;;;;;4898518;29;20056;-68
2022/07/18 12:54:56;;;;;;;1.35;0.93;;;30.50;31.00;;;;;;4891715;29;20059;-65
2022/07/18 12:57:23;;;;;;;3.10;1.13;;;30.30;30.40;;;;;;4894809;29;20052;-67
2022/07/18 12:59:50;;;;;;;2.55;1.25;;;30.20;30.60;;;;;;4892330;29;20051;-67